Time;durP1;ratioP1;P1;durP2;ratioP2;P2;SDS_P1;SDS_P2;PMS_P1;PMS_P2;Temp;Humidity;BMP_temperature;BMP_pressure;BME280_temperature;BME280_humidity;BME280_pressure;Samples;Min_cycle;Max_cycle;Signal;HPM_P1;HPM_P2
2022/09/20 00:00:05;;;;;;;0.70;0.60;;;12.40;99.90;;;;;;6262830;22;20007;-72
2022/09/20 00:02:31;;;;;;;0.88;0.60;;;12.40;99.90;;;;;;6256830;22;20574;-72
2022/09/20 00:04:56;;;;;;;4.10;1.00;;;12.40;99.90;;;;;;6262330;22;20007;-74
2022/09/20 00:07:22;;;;;;;0.75;0.60;;;12.50;99.90;;;;;;6263776;22;20004;-72
2022/09/20 00:09:47;;;;;;;1.83;0.43;;;12.50;99.90;;;;;;6264143;22;20113;-72
2022/09/20 00:12:13;;;;;;;0.50;0.50;;;12.50;99.90;;;;;;6260137;22;20007;-73
2022/09/20 00:14:39;;;;;;;0.85;0.85;;;12.50;99.90;;;;;;6262673;22;20062;-70
2022/09/20 00:17:04;;;;;;;0.60;0.60;;;12.60;99.90;;;;;;6263795;22;20015;-72
2022/09/20 00:19:30;;;;;;;0.57;0.57;;;12.60;99.90;;;;;;6260260;22;20003;-72
2022/09/20 00:21:56;;;;;;;1.70;0.60;;;12.50;99.90;;;;;;6261630;22;20490;-75
2022/09/20 00:24:21;;;;;;;0.73;0.45;;;12.50;99.90;;;;;;6262259;22;20004;-71
2022/09/20 00:26:47;;;;;;;0.70;0.50;;;12.50;99.90;;;;;;6263718;22;20012;-74
2022/09/20 00:29:13;;;;;;;1.20;0.52;;;12.50;99.90;;;;;;6263774;22;19999;-74
2022/09/20 00:31:41;;;;;;;0.60;0.60;;;12.50;99.90;;;;;;6264583;22;20008;-74
2022/09/20 00:36:53;;;;;;;0.85;0.50;;;12.50;99.90;;;;;;6261969;22;20077;-75
2022/09/20 00:39:19;;;;;;;2.15;0.50;;;12.40;99.90;;;;;;6263109;22;20011;-76
2022/09/20 00:41:45;;;;;;;2.50;0.50;;;12.30;99.90;;;;;;6262438;22;20079;-74
2022/09/20 00:44:52;;;;;;;0.40;0.40;;;12.20;99.90;;;;;;6262692;22;20019;-73
2022/09/20 00:47:26;;;;;;;1.00;0.40;;;12.10;99.90;;;;;;6264845;22;20191;-74
2022/09/20 00:49:57;;;;;;;0.47;0.47;;;12.10;99.90;;;;;;6264398;22;20090;-74
2022/09/20 00:52:23;;;;;;;0.60;0.60;;;12.10;99.90;;;;;;6263519;22;20000;-74
2022/09/20 00:54:49;;;;;;;1.77;0.43;;;12.10;99.90;;;;;;6260758;22;20033;-74
2022/09/20 00:57:14;;;;;;;0.43;0.43;;;12.20;99.90;;;;;;6262357;22;20428;-74
2022/09/20 00:59:43;;;;;;;0.85;0.68;;;12.20;99.90;;;;;;6264003;22;20090;-74
2022/09/20 01:02:15;;;;;;;0.80;0.80;;;12.10;99.90;;;;;;6265026;22;20011;-73
2022/09/20 01:04:41;;;;;;;0.77;0.60;;;12.10;99.90;;;;;;6258514;22;20055;-74
2022/09/20 01:07:09;;;;;;;0.40;0.40;;;12.10;99.90;;;;;;6262354;22;20637;-74
2022/09/20 01:09:35;;;;;;;0.50;0.40;;;12.10;99.90;;;;;;6264123;22;20089;-74
2022/09/20 01:12:06;;;;;;;0.98;0.60;;;12.10;99.90;;;;;;6264263;22;20008;-74
2022/09/20 01:14:33;;;;;;;1.88;0.70;;;12.10;99.90;;;;;;6262291;22;20004;-74
2022/09/20 01:17:03;;;;;;;0.30;0.30;;;12.00;99.90;;;;;;6263671;22;20318;-74
2022/09/20 01:20:13;;;;;;;0.93;0.50;;;12.10;99.90;;;;;;6264864;22;20057;-73
2022/09/20 01:23:21;;;;;;;0.63;0.50;;;12.10;99.90;;;;;;6264008;22;20004;-73
2022/09/20 01:26:05;;;;;;;0.77;0.52;;;12.10;99.90;;;;;;6263721;22;20034;-74
2022/09/20 01:28:31;;;;;;;0.40;0.40;;;12.10;99.90;;;;;;6264452;22;20011;-73
2022/09/20 01:31:41;;;;;;;0.47;0.47;;;12.10;99.90;;;;;;6263491;22;20000;-73
2022/09/20 01:34:11;;;;;;;0.30;0.30;;;12.10;99.90;;;;;;6190012;22;20111;-72
2022/09/20 01:36:41;;;;;;;0.75;0.30;;;12.00;99.90;;;;;;6261243;22;20012;-72
2022/09/20 01:39:10;;;;;;;0.52;0.47;;;12.00;99.90;;;;;;6265722;22;20010;-72
2022/09/20 01:41:59;;;;;;;0.45;0.45;;;12.00;99.90;;;;;;6263570;22;20003;-72
2022/09/20 01:44:47;;;;;;;1.05;0.52;;;12.00;99.90;;;;;;6263847;22;20008;-71
2022/09/20 01:47:36;;;;;;;0.88;0.50;;;12.00;99.90;;;;;;6260418;22;20118;-72
2022/09/20 01:50:06;;;;;;;0.63;0.50;;;11.90;99.90;;;;;;6263042;22;20008;-72
2022/09/20 01:53:04;;;;;;;0.52;0.50;;;12.00;99.90;;;;;;6262392;22;20351;-71
2022/09/20 01:55:45;;;;;;;0.50;0.40;;;12.00;99.90;;;;;;6264456;22;20006;-72
2022/09/20 01:58:28;;;;;;;1.45;0.50;;;12.00;99.90;;;;;;6263036;22;20596;-72
2022/09/20 02:01:02;;;;;;;0.60;0.60;;;12.00;99.90;;;;;;6260000;22;20325;-71
2022/09/20 02:03:56;;;;;;;0.50;0.40;;;12.00;99.90;;;;;;6262354;22;20007;-71
2022/09/20 02:06:45;;;;;;;0.57;0.57;;;11.90;99.90;;;;;;6260299;22;20000;-71
2022/09/20 02:09:17;;;;;;;3.03;0.63;;;11.90;99.90;;;;;;6265288;22;20027;-72
2022/09/20 02:12:10;;;;;;;0.90;0.60;;;12.00;99.90;;;;;;6257747;22;20010;-71
2022/09/20 02:15:07;;;;;;;0.40;0.40;;;12.00;99.90;;;;;;6264225;22;19999;-71
2022/09/20 02:18:11;;;;;;;0.68;0.35;;;12.00;99.90;;;;;;6264167;22;20452;-71
2022/09/20 02:21:13;;;;;;;0.70;0.40;;;12.00;99.90;;;;;;6237466;22;20061;-71
2022/09/20 02:23:54;;;;;;;1.70;0.57;;;12.00;99.90;;;;;;6264185;22;20551;-71
2022/09/20 02:26:51;;;;;;;0.47;0.40;;;12.00;99.90;;;;;;6261765;22;20502;-71
2022/09/20 02:29:44;;;;;;;2.72;0.50;;;12.00;99.90;;;;;;6262571;22;20082;-71
2022/09/20 02:32:34;;;;;;;0.68;0.55;;;12.00;99.90;;;;;;6263290;22;20411;-71
2022/09/20 02:35:20;;;;;;;0.38;0.38;;;12.00;99.90;;;;;;6258837;22;20007;-71
2022/09/20 02:38:07;;;;;;;0.70;0.40;;;12.00;99.90;;;;;;6261447;22;20024;-71
2022/09/20 02:40:35;;;;;;;0.50;0.43;;;12.00;99.90;;;;;;6263557;22;20531;-72
2022/09/20 02:43:49;;;;;;;1.95;0.50;;;12.00;99.90;;;;;;6261487;22;20393;-71
2022/09/20 02:46:40;;;;;;;0.63;0.45;;;12.00;99.90;;;;;;6235379;22;20016;-71
2022/09/20 02:49:39;;;;;;;0.70;0.47;;;11.90;99.90;;;;;;6263194;22;20004;-72
2022/09/20 02:52:25;;;;;;;0.75;0.57;;;11.90;99.90;;;;;;6262267;22;20065;-72
2022/09/20 02:55:05;;;;;;;0.52;0.50;;;11.90;99.90;;;;;;6260474;22;20066;-73
2022/09/20 02:57:32;;;;;;;0.65;0.50;;;11.90;99.90;;;;;;6262691;22;20012;-72
2022/09/20 03:00:02;;;;;;;0.70;0.68;;;11.90;99.90;;;;;;6262833;22;20080;-72
2022/09/20 03:02:52;;;;;;;2.05;0.70;;;11.90;99.90;;;;;;6263201;22;20004;-72
2022/09/20 03:05:28;;;;;;;0.65;0.60;;;11.90;99.90;;;;;;6257120;22;20488;-72
2022/09/20 03:08:31;;;;;;;2.50;0.90;;;11.80;99.90;;;;;;6259984;22;20045;-73
2022/09/20 03:11:22;;;;;;;0.60;0.50;;;11.80;99.90;;;;;;6261109;22;20043;-72
2022/09/20 03:14:23;;;;;;;0.82;0.60;;;11.80;99.90;;;;;;6260603;22;20517;-72
2022/09/20 03:17:11;;;;;;;0.77;0.70;;;11.90;99.90;;;;;;6259627;22;20103;-71
2022/09/20 03:20:00;;;;;;;0.65;0.60;;;11.90;99.90;;;;;;6258253;22;20003;-71
2022/09/20 03:22:41;;;;;;;1.50;0.75;;;11.80;99.90;;;;;;6262770;22;20083;-71
2022/09/20 03:25:41;;;;;;;0.80;0.80;;;11.80;99.90;;;;;;6262264;22;20018;-72
2022/09/20 03:28:18;;;;;;;0.82;0.82;;;11.70;99.90;;;;;;6262713;22;20003;-71
2022/09/20 03:30:55;;;;;;;2.35;0.68;;;11.60;99.90;;;;;;6259636;22;20007;-71
2022/09/20 03:33:39;;;;;;;0.75;0.75;;;11.60;99.90;;;;;;6264116;22;20045;-71
2022/09/20 03:36:49;;;;;;;0.70;0.70;;;11.40;99.90;;;;;;6233203;22;20031;-71
2022/09/20 05:43:32;;;;;;;0.85;0.40;;;12.50;99.90;;;;;;6273901;22;20023;-77
2022/09/20 05:46:53;;;;;;;1.52;0.50;;;12.80;99.90;;;;;;6263262;22;20433;-78
2022/09/20 05:49:34;;;;;;;1.23;0.40;;;12.90;99.90;;;;;;6199722;22;20023;-77
2022/09/20 05:52:30;;;;;;;1.35;0.30;;;13.20;99.90;;;;;;6262947;22;20008;-78
2022/09/20 05:55:16;;;;;;;0.40;0.40;;;13.10;99.90;;;;;;6263953;22;20043;-77
2022/09/20 05:58:06;;;;;;;0.60;0.40;;;13.30;99.90;;;;;;6230422;22;20857;-77
2022/09/20 06:00:49;;;;;;;1.13;0.40;;;13.50;99.90;;;;;;6264449;22;20119;-82
2022/09/20 06:03:44;;;;;;;0.60;0.50;;;13.50;99.90;;;;;;6265458;22;20015;-82
2022/09/20 06:06:38;;;;;;;0.60;0.60;;;13.50;99.90;;;;;;6263941;22;20015;-76
2022/09/20 06:09:04;;;;;;;12.57;1.00;;;13.40;99.90;;;;;;6258798;22;20326;-78
2022/09/20 06:11:50;;;;;;;5.88;1.25;;;13.40;99.90;;;;;;6263241;22;20004;-81
2022/09/20 06:15:00;;;;;;;0.65;0.50;;;13.30;99.90;;;;;;6266001;22;20356;-79
2022/09/20 06:17:46;;;;;;;0.80;0.57;;;13.30;99.90;;;;;;6266955;22;20014;-78
2022/09/20 06:20:23;;;;;;;0.50;0.50;;;13.20;99.90;;;;;;6266462;22;20386;-76
2022/09/20 06:22:53;;;;;;;2.63;0.85;;;13.20;99.90;;;;;;6265573;22;20074;-74
2022/09/20 06:25:24;;;;;;;0.47;0.40;;;13.10;99.90;;;;;;6268034;22;19999;-73
2022/09/20 06:27:57;;;;;;;0.60;0.60;;;13.00;99.90;;;;;;6262772;22;20003;-75
2022/09/20 06:30:30;;;;;;;0.90;0.73;;;13.00;99.90;;;;;;6265420;22;20787;-72
2022/09/20 06:33:04;;;;;;;0.68;0.50;;;12.80;99.90;;;;;;6264310;22;20012;-73
2022/09/20 06:35:43;;;;;;;2.67;0.82;;;12.60;99.90;;;;;;6264367;22;20000;-73
2022/09/20 06:43:47;;;;;;;0.60;0.60;;;12.50;99.90;;;;;;6268462;22;20066;-74
2022/09/20 06:46:14;;;;;;;0.50;0.50;;;12.50;99.90;;;;;;6297140;22;20079;-78
2022/09/20 06:48:40;;;;;;;0.60;0.40;;;12.70;99.90;;;;;;6269577;22;20440;-73
2022/09/20 06:51:08;;;;;;;0.95;0.60;;;12.70;99.90;;;;;;6294666;22;20049;-71
2022/09/20 06:53:38;;;;;;;0.70;0.60;;;12.70;99.90;;;;;;6296609;22;20070;-74
2022/09/20 06:56:04;;;;;;;0.50;0.50;;;12.70;99.90;;;;;;6294927;22;20353;-75
2022/09/20 06:58:30;;;;;;;1.02;0.60;;;12.80;99.90;;;;;;6294321;22;20015;-75
2022/09/20 07:00:55;;;;;;;0.45;0.28;;;12.80;99.90;;;;;;6295197;22;20321;-73
2022/09/20 07:03:21;;;;;;;0.50;0.50;;;12.80;99.90;;;;;;6295199;22;20574;-73
2022/09/20 07:05:47;;;;;;;0.50;0.40;;;12.90;99.90;;;;;;6295931;22;20038;-73
2022/09/20 07:08:12;;;;;;;0.45;0.40;;;13.00;99.90;;;;;;6267698;22;20437;-77
2022/09/20 07:10:38;;;;;;;0.50;0.50;;;13.10;99.90;;;;;;6294353;22;20003;-78
2022/09/20 07:13:04;;;;;;;0.40;0.40;;;13.20;99.90;;;;;;6293372;22;20345;-73
2022/09/20 07:15:31;;;;;;;0.45;0.40;;;13.30;99.90;;;;;;6295888;22;20082;-73
2022/09/20 07:17:58;;;;;;;0.93;0.52;;;13.40;99.90;;;;;;6268262;22;20051;-73
2022/09/20 07:20:24;;;;;;;0.30;0.30;;;13.70;99.90;;;;;;6294116;22;20494;-72
2022/09/20 07:22:49;;;;;;;0.40;0.40;;;13.90;99.90;;;;;;6296042;22;20050;-73
2022/09/20 07:25:17;;;;;;;0.50;0.50;;;13.90;99.90;;;;;;6294192;22;20488;-75
2022/09/20 07:27:45;;;;;;;0.93;0.52;;;14.00;99.90;;;;;;6292038;22;19999;-74
2022/09/20 07:30:12;;;;;;;0.40;0.30;;;13.90;99.90;;;;;;6298982;22;19999;-75
2022/09/20 07:32:39;;;;;;;0.30;0.30;;;13.90;99.90;;;;;;6294573;22;20004;-72
2022/09/20 07:35:09;;;;;;;0.20;0.20;;;13.80;99.90;;;;;;6296909;22;20004;-73
2022/09/20 07:37:35;;;;;;;0.40;0.30;;;13.80;99.90;;;;;;6295769;22;20064;-72
2022/09/20 07:40:03;;;;;;;1.42;0.50;;;13.90;99.90;;;;;;6294582;22;20070;-76
2022/09/20 07:42:29;;;;;;;0.50;0.35;;;14.10;99.90;;;;;;6293860;22;20003;-77
2022/09/20 07:44:55;;;;;;;0.82;0.32;;;14.30;99.90;;;;;;6297620;22;20141;-78
2022/09/20 07:47:24;;;;;;;0.88;0.40;;;14.40;99.90;;;;;;6288809;22;20011;-79
2022/09/20 07:49:50;;;;;;;0.60;0.40;;;14.50;99.90;;;;;;6264959;22;20110;-80
2022/09/20 07:52:16;;;;;;;0.93;0.40;;;14.40;99.90;;;;;;6296268;22;20031;-78
2022/09/20 07:54:42;;;;;;;0.28;0.28;;;14.40;99.90;;;;;;6294525;22;20014;-78
2022/09/20 07:57:08;;;;;;;0.40;0.40;;;14.50;99.90;;;;;;6286295;22;20220;-77
2022/09/20 07:59:33;;;;;;;0.40;0.40;;;14.40;99.90;;;;;;6285647;22;20057;-83
2022/09/20 08:01:59;;;;;;;0.40;0.40;;;14.30;99.90;;;;;;6289729;22;20050;-78
2022/09/20 08:04:26;;;;;;;0.30;0.22;;;14.20;99.90;;;;;;6292577;22;20007;-77
2022/09/20 08:06:51;;;;;;;1.15;0.30;;;14.10;99.90;;;;;;6293237;22;20011;-80
2022/09/20 08:09:18;;;;;;;0.20;0.20;;;14.00;99.90;;;;;;6266923;22;20007;-83
2022/09/20 08:11:45;;;;;;;0.60;0.28;;;14.00;99.90;;;;;;6285435;22;20034;-79
2022/09/20 08:14:16;;;;;;;3.22;0.82;;;14.00;99.90;;;;;;6297236;22;20003;-82
2022/09/20 08:16:47;;;;;;;0.30;0.30;;;13.90;99.90;;;;;;6299395;22;20313;-83
2022/09/20 08:19:20;;;;;;;0.40;0.40;;;13.80;99.90;;;;;;6298863;22;20052;-83
2022/09/20 08:21:48;;;;;;;0.40;0.40;;;13.70;99.90;;;;;;6277211;22;20017;-83
2022/09/20 08:24:15;;;;;;;0.40;0.40;;;13.70;99.90;;;;;;6308229;22;19999;-81
2022/09/20 08:26:41;;;;;;;0.82;0.60;;;13.80;99.90;;;;;;6305034;22;20010;-77
2022/09/20 08:29:06;;;;;;;0.63;0.60;;;13.80;99.90;;;;;;6305435;22;20086;-80
2022/09/20 08:31:35;;;;;;;1.67;0.75;;;13.80;99.90;;;;;;6307045;22;20003;-78
2022/09/20 08:34:02;;;;;;;1.75;0.50;;;13.80;99.90;;;;;;6304370;22;20464;-78
2022/09/20 08:36:30;;;;;;;1.63;0.82;;;13.90;99.90;;;;;;6304614;22;20013;-76
2022/09/20 08:38:56;;;;;;;0.82;0.43;;;14.00;99.90;;;;;;6305906;22;20031;-73
2022/09/20 08:41:44;;;;;;;0.70;0.60;;;14.10;99.90;;;;;;6303288;22;19999;-73
2022/09/20 08:44:32;;;;;;;0.73;0.50;;;14.10;99.90;;;;;;6307574;22;20041;-75
2022/09/20 08:47:16;;;;;;;0.50;0.50;;;14.10;99.90;;;;;;6307859;22;20011;-74
2022/09/20 08:49:42;;;;;;;0.57;0.57;;;14.10;99.90;;;;;;6306088;22;20007;-74
2022/09/20 08:52:15;;;;;;;1.42;0.50;;;14.20;99.90;;;;;;6292182;22;20010;-73
2022/09/20 08:54:42;;;;;;;0.55;0.50;;;14.30;99.90;;;;;;6296477;22;19999;-77
2022/09/20 08:57:17;;;;;;;0.70;0.60;;;14.30;99.90;;;;;;6295566;22;20019;-77
2022/09/20 08:59:43;;;;;;;0.50;0.43;;;14.30;99.90;;;;;;6293044;22;20006;-79
2022/09/20 09:02:18;;;;;;;1.02;0.70;;;14.20;99.90;;;;;;6288761;22;20440;-76
2022/09/20 09:04:45;;;;;;;0.57;0.57;;;14.20;99.90;;;;;;6295940;22;20034;-80
2022/09/20 09:07:13;;;;;;;1.10;0.52;;;14.40;99.90;;;;;;6294610;22;20018;-77
2022/09/20 09:09:42;;;;;;;0.65;0.60;;;14.50;99.90;;;;;;6294525;22;20030;-76
2022/09/20 09:12:33;;;;;;;1.27;0.38;;;14.60;99.90;;;;;;6289486;22;20007;-76
2022/09/20 09:15:22;;;;;;;0.45;0.45;;;14.60;99.90;;;;;;6291653;22;19999;-74
2022/09/20 09:17:48;;;;;;;0.40;0.40;;;14.60;99.90;;;;;;6288553;22;20150;-74
2022/09/20 09:20:21;;;;;;;0.47;0.40;;;14.70;99.90;;;;;;6291576;22;20427;-74
2022/09/20 09:22:58;;;;;;;0.75;0.60;;;14.90;99.90;;;;;;6292232;22;20428;-73
2022/09/20 09:25:46;;;;;;;1.13;0.60;;;15.10;99.90;;;;;;6292334;22;20101;-77
2022/09/20 09:28:12;;;;;;;0.40;0.40;;;14.90;99.90;;;;;;6292234;22;20088;-75
2022/09/20 09:30:41;;;;;;;1.02;0.60;;;15.10;99.90;;;;;;6289683;22;20079;-76
2022/09/20 09:33:23;;;;;;;0.75;0.60;;;15.30;99.90;;;;;;6288933;22;19999;-76
2022/09/20 09:36:14;;;;;;;0.55;0.50;;;15.40;99.90;;;;;;6293738;22;20007;-76
2022/09/20 09:38:44;;;;;;;1.05;0.50;;;15.50;99.90;;;;;;6291419;22;20016;-76
2022/09/20 09:41:24;;;;;;;1.38;0.77;;;15.50;99.90;;;;;;6291756;22;19999;-75
2022/09/20 09:44:17;;;;;;;0.85;0.40;;;15.20;99.90;;;;;;6286413;22;20014;-76
2022/09/20 09:46:43;;;;;;;0.38;0.38;;;15.00;99.90;;;;;;6291270;22;20098;-75
2022/09/20 09:49:17;;;;;;;0.45;0.35;;;15.10;99.90;;;;;;6293349;22;20027;-76
2022/09/20 09:52:23;;;;;;;0.38;0.25;;;15.30;99.90;;;;;;6289352;22;20067;-74
2022/09/20 09:54:51;;;;;;;0.40;0.40;;;15.40;99.90;;;;;;6287848;22;20007;-78
2022/09/20 09:57:54;;;;;;;1.83;0.35;;;15.60;99.90;;;;;;6288201;22;20114;-75
2022/09/20 10:00:22;;;;;;;1.70;0.63;;;15.70;99.90;;;;;;6264732;22;20034;-76
2022/09/20 10:03:05;;;;;;;1.95;0.40;;;15.70;99.90;;;;;;6291260;22;20007;-81
2022/09/20 10:05:37;;;;;;;0.22;0.22;;;15.80;99.90;;;;;;6262427;22;20049;-75
2022/09/20 10:08:19;;;;;;;2.15;0.50;;;15.80;99.90;;;;;;6262796;22;20007;-75
2022/09/20 10:11:10;;;;;;;0.40;0.40;;;15.70;99.90;;;;;;6293622;22;20091;-74
2022/09/20 10:13:48;;;;;;;0.75;0.38;;;15.80;99.90;;;;;;6284052;22;20006;-76
2022/09/20 10:16:38;;;;;;;0.70;0.50;;;15.90;99.90;;;;;;6288197;22;20010;-82
2022/09/20 10:19:15;;;;;;;0.50;0.50;;;16.00;99.90;;;;;;6288139;22;20046;-76
2022/09/20 10:22:00;;;;;;;0.50;0.47;;;15.80;99.90;;;;;;6293563;22;20507;-79
2022/09/20 10:24:38;;;;;;;0.60;0.50;;;15.90;99.90;;;;;;6296286;22;20082;-78
2022/09/20 10:27:34;;;;;;;0.55;0.40;;;15.90;99.90;;;;;;6295873;22;20430;-77
2022/09/20 10:30:19;;;;;;;0.95;0.50;;;15.70;99.90;;;;;;6219158;22;20039;-77
2022/09/20 10:33:14;;;;;;;0.47;0.47;;;15.60;99.90;;;;;;6297845;22;20007;-77
2022/09/20 10:36:05;;;;;;;0.88;0.60;;;15.60;99.90;;;;;;6295984;22;20074;-77
2022/09/20 10:38:44;;;;;;;1.27;0.70;;;15.80;99.90;;;;;;6296699;22;20014;-77
2022/09/20 10:44:50;;;;;;;0.45;0.40;;;16.10;99.90;;;;;;6294798;22;20018;-75
2022/09/20 10:47:20;;;;;;;;;;;16.40;99.90;;;;;;6299307;22;20440;-77
2022/09/20 10:49:55;;;;;;;0.60;0.60;;;16.50;99.90;;;;;;6296843;22;19911;-74
2022/09/20 10:52:42;;;;;;;0.30;0.30;;;16.50;99.90;;;;;;6297698;22;19995;-74
2022/09/20 10:55:14;;;;;;;0.40;0.25;;;16.20;99.90;;;;;;6297633;22;20007;-77
2022/09/20 10:57:59;;;;;;;0.52;0.52;;;16.00;99.90;;;;;;6297633;22;20090;-73
2022/09/20 11:00:33;;;;;;;0.30;0.30;;;16.10;99.90;;;;;;6295432;22;20006;-73
2022/09/20 11:03:25;;;;;;;2.40;0.52;;;16.30;99.90;;;;;;6295764;22;20436;-74
2022/09/20 11:06:06;;;;;;;0.82;0.80;;;16.40;99.90;;;;;;6296446;22;20029;-73
2022/09/20 11:08:35;;;;;;;0.70;0.40;;;16.30;99.90;;;;;;6296258;22;20082;-76
2022/09/20 11:11:11;;;;;;;0.38;0.38;;;16.00;99.90;;;;;;6269992;22;20662;-80
2022/09/20 11:13:39;;;;;;;0.57;0.57;;;15.80;99.90;;;;;;6298330;22;20086;-76
2022/09/20 11:16:10;;;;;;;0.70;0.40;;;15.80;99.90;;;;;;6294482;22;20011;-78
2022/09/20 11:18:50;;;;;;;0.40;0.30;;;15.80;99.90;;;;;;6298701;22;20023;-81
2022/09/20 11:21:26;;;;;;;0.35;0.35;;;16.00;99.90;;;;;;6298294;22;20016;-79
2022/09/20 11:24:09;;;;;;;0.63;0.35;;;16.10;99.90;;;;;;6296835;22;20007;-80
2022/09/20 11:26:38;;;;;;;1.13;0.40;;;16.30;99.90;;;;;;6297933;22;20380;-76
2022/09/20 11:29:24;;;;;;;0.65;0.43;;;16.40;99.90;;;;;;6297837;22;20074;-75
2022/09/20 11:31:54;;;;;;;0.50;0.30;;;16.40;99.90;;;;;;6270456;22;20636;-78
2022/09/20 11:34:28;;;;;;;0.30;0.30;;;16.40;99.90;;;;;;6298758;22;20542;-76
2022/09/20 11:37:01;;;;;;;1.52;0.43;;;16.50;99.90;;;;;;6296685;22;20007;-75
2022/09/20 11:39:49;;;;;;;0.20;0.20;;;16.60;99.90;;;;;;6297072;22;20011;-76
2022/09/20 11:42:22;;;;;;;0.40;0.30;;;16.70;99.90;;;;;;6294677;22;20471;-75
2022/09/20 11:44:49;;;;;;;1.90;0.32;;;16.90;99.90;;;;;;6294706;22;20019;-77
2022/09/20 11:47:41;;;;;;;0.40;0.20;;;17.00;99.90;;;;;;6296994;22;20010;-79
2022/09/20 11:50:46;;;;;;;0.40;0.30;;;17.10;99.90;;;;;;6297663;22;20023;-76
2022/09/20 11:53:32;;;;;;;0.38;0.10;;;17.10;99.90;;;;;;6298504;22;20011;-74
2022/09/20 11:56:03;;;;;;;0.80;0.30;;;17.00;99.90;;;;;;6297502;22;20003;-76
2022/09/20 11:58:30;;;;;;;3.33;0.45;;;16.80;99.90;;;;;;6296575;22;20007;-76
2022/09/20 12:00:58;;;;;;;0.35;0.30;;;16.80;99.90;;;;;;6297059;22;20031;-77
2022/09/20 12:03:31;;;;;;;1.45;0.40;;;16.90;99.90;;;;;;6297216;22;20007;-76
2022/09/20 12:06:21;;;;;;;1.52;0.40;;;17.00;99.90;;;;;;6267764;22;20007;-76
2022/09/20 12:08:51;;;;;;;0.35;0.32;;;17.10;99.90;;;;;;6271694;22;20064;-66
2022/09/20 12:11:37;;;;;;;0.50;0.30;;;17.20;99.90;;;;;;6294520;22;20039;-69
2022/09/20 12:14:16;;;;;;;0.43;0.20;;;17.40;99.90;;;;;;6296858;22;20014;-69
2022/09/20 12:16:45;;;;;;;1.75;0.22;;;17.50;99.90;;;;;;6294183;22;20074;-69
2022/09/20 12:19:31;;;;;;;3.50;0.40;;;17.60;99.90;;;;;;6296526;22;20033;-67
2022/09/20 12:21:59;;;;;;;0.20;0.10;;;17.70;99.90;;;;;;6295970;22;20007;-70
2022/09/20 12:24:31;;;;;;;0.30;0.20;;;17.80;99.90;;;;;;6297068;22;20002;-69
2022/09/20 12:27:05;;;;;;;0.30;0.20;;;17.60;99.90;;;;;;6296645;22;20507;-69
2022/09/20 12:29:34;;;;;;;0.20;0.20;;;17.60;99.90;;;;;;6296213;22;20011;-69
2022/09/20 12:32:02;;;;;;;0.50;0.20;;;17.40;99.90;;;;;;6268703;22;20454;-69
2022/09/20 12:34:34;;;;;;;0.40;0.30;;;17.40;99.90;;;;;;6292505;22;19999;-70
2022/09/20 12:37:00;;;;;;;0.25;0.10;;;17.30;99.90;;;;;;6292138;22;20015;-70
2022/09/20 12:39:32;;;;;;;0.85;0.50;;;17.30;99.90;;;;;;6295773;22;20080;-69
2022/09/20 12:42:05;;;;;;;0.63;0.30;;;17.30;99.90;;;;;;6295494;22;20003;-71
2022/09/20 12:44:53;;;;;;;0.82;0.50;;;17.30;99.90;;;;;;6296427;22;20068;-69
2022/09/20 12:47:25;;;;;;;1.95;0.30;;;17.20;99.90;;;;;;6293597;22;20322;-71
2022/09/20 12:52:54;;;;;;;0.50;0.30;;;17.30;99.90;;;;;;6295694;22;20076;-69
2022/09/20 12:55:26;;;;;;;1.35;0.40;;;17.40;99.90;;;;;;6296072;22;20086;-78
2022/09/20 12:58:13;;;;;;;1.08;0.40;;;17.30;99.90;;;;;;6295099;22;20007;-80
2022/09/20 13:00:45;;;;;;;0.73;0.50;;;17.20;99.90;;;;;;6296623;22;20030;-78
2022/09/20 13:03:13;;;;;;;;;;;17.10;99.90;;;;;;6296064;22;20010;-79
2022/09/20 13:05:46;;;;;;;0.40;0.40;;;16.80;99.90;;;;;;6294587;22;20738;-76
2022/09/20 13:08:19;;;;;;;0.93;0.63;;;16.50;99.90;;;;;;6297498;22;20060;-78
2022/09/20 13:11:08;;;;;;;0.43;0.43;;;16.50;99.90;;;;;;6295476;22;20388;-83
2022/09/20 13:13:48;;;;;;;0.35;0.35;;;16.50;99.90;;;;;;6296196;22;20010;-82
2022/09/20 13:16:57;;;;;;;0.55;0.40;;;16.30;99.90;;;;;;6294873;22;19995;-74
2022/09/20 13:19:28;;;;;;;0.47;0.43;;;16.30;99.90;;;;;;6293196;22;20026;-76
2022/09/20 13:22:02;;;;;;;0.43;0.43;;;16.10;99.90;;;;;;6295522;22;20459;-73
2022/09/20 13:24:37;;;;;;;1.48;0.47;;;16.00;99.90;;;;;;6296598;22;19996;-74
2022/09/20 13:27:08;;;;;;;1.13;0.43;;;16.10;99.90;;;;;;6295724;22;20023;-74
2022/09/20 13:29:39;;;;;;;1.00;0.60;;;16.10;99.90;;;;;;6268668;22;20657;-73
2022/09/20 13:32:40;;;;;;;0.38;0.30;;;16.10;99.90;;;;;;6295518;22;20704;-73
2022/09/20 13:35:08;;;;;;;0.50;0.50;;;16.10;99.90;;;;;;6209862;22;20012;-74
2022/09/20 13:37:38;;;;;;;2.25;0.45;;;16.10;99.90;;;;;;6261601;22;20085;-74
2022/09/20 13:40:05;;;;;;;0.40;0.40;;;16.00;99.90;;;;;;6296155;22;20617;-74
2022/09/20 13:42:34;;;;;;;1.15;0.50;;;15.90;99.90;;;;;;6295190;22;20007;-76
2022/09/20 13:45:02;;;;;;;0.60;0.60;;;15.90;99.90;;;;;;6294415;22;20068;-75
2022/09/20 13:47:30;;;;;;;1.02;0.55;;;15.80;99.90;;;;;;6290695;22;20007;-73
2022/09/20 13:50:16;;;;;;;0.45;0.45;;;15.90;99.90;;;;;;6293585;22;20000;-74
2022/09/20 13:52:51;;;;;;;1.33;0.50;;;15.90;99.90;;;;;;6268027;22;20375;-75
2022/09/20 13:55:32;;;;;;;1.15;0.47;;;15.90;99.90;;;;;;6296601;22;20007;-75
2022/09/20 13:58:17;;;;;;;1.25;0.40;;;15.80;99.90;;;;;;6293747;22;20014;-74
2022/09/20 14:00:54;;;;;;;0.30;0.30;;;15.90;99.90;;;;;;6295811;22;20010;-73
2022/09/20 14:03:21;;;;;;;0.52;0.45;;;15.90;99.90;;;;;;6297339;22;20071;-72
2022/09/20 14:05:53;;;;;;;3.22;0.80;;;16.00;99.90;;;;;;6296024;22;19996;-74
2022/09/20 14:08:39;;;;;;;;;;;16.00;99.90;;;;;;6298404;22;20003;-73
2022/09/20 14:11:11;;;;;;;0.40;0.30;;;16.00;99.90;;;;;;6269856;22;19910;-74
2022/09/20 14:13:40;;;;;;;1.17;0.40;;;16.00;99.90;;;;;;6296578;22;20384;-74
2022/09/20 14:16:08;;;;;;;9.07;0.63;;;16.00;99.90;;;;;;6295941;22;20085;-73
2022/09/20 14:18:35;;;;;;;4.47;1.98;;;16.10;99.90;;;;;;6292885;22;20015;-74
2022/09/20 14:21:01;;;;;;;0.98;0.90;;;16.20;99.90;;;;;;6295971;22;20006;-73
2022/09/20 14:23:28;;;;;;;1.92;0.68;;;16.40;99.90;;;;;;6298666;22;20784;-74
2022/09/20 14:26:15;;;;;;;0.50;0.13;;;16.40;99.90;;;;;;6297125;22;20048;-74
2022/09/20 14:28:44;;;;;;;1.13;0.20;;;16.30;99.90;;;;;;6296528;22;20007;-73
2022/09/20 14:31:21;;;;;;;0.57;0.40;;;16.40;99.90;;;;;;6298450;22;19999;-73
2022/09/20 14:33:52;;;;;;;1.15;0.60;;;16.50;99.90;;;;;;6296246;22;20062;-76
2022/09/20 14:36:23;;;;;;;0.28;0.20;;;16.60;99.90;;;;;;6296666;22;20003;-76
2022/09/20 14:38:54;;;;;;;0.93;0.85;;;16.60;99.90;;;;;;6295878;22;20075;-78
2022/09/20 14:41:35;;;;;;;2.10;0.30;;;16.60;99.90;;;;;;6297470;22;20424;-74
2022/09/20 14:44:02;;;;;;;3.97;2.70;;;16.50;99.90;;;;;;6291510;22;20007;-74
2022/09/20 14:46:37;;;;;;;1.67;0.70;;;16.50;99.90;;;;;;6294171;22;20008;-75
2022/09/20 14:49:25;;;;;;;5.78;1.50;;;16.70;99.90;;;;;;6295726;22;20018;-75
2022/09/20 14:51:52;;;;;;;6.22;0.65;;;16.80;99.90;;;;;;6296762;22;20067;-77
2022/09/20 14:54:26;;;;;;;1.15;0.32;;;16.60;99.90;;;;;;6293488;22;20377;-76
2022/09/20 14:56:53;;;;;;;0.60;0.30;;;16.50;99.90;;;;;;6296703;22;20018;-76
2022/09/20 14:59:21;;;;;;;9.63;8.63;;;16.60;99.90;;;;;;6270048;22;20007;-79
2022/09/20 15:01:58;;;;;;;2.35;0.63;;;16.50;99.90;;;;;;6294937;22;20004;-75
2022/09/20 15:04:26;;;;;;;1.65;0.47;;;16.40;99.90;;;;;;6297403;22;20015;-76
2022/09/20 15:06:52;;;;;;;1.17;0.55;;;16.30;99.90;;;;;;6296643;22;20099;-76
2022/09/20 15:09:20;;;;;;;1.35;0.77;;;16.30;99.90;;;;;;6296768;22;20321;-75
2022/09/20 15:11:48;;;;;;;1.55;0.80;;;16.40;99.90;;;;;;6268336;22;20520;-77
2022/09/20 15:14:14;;;;;;;0.80;0.43;;;16.50;99.90;;;;;;6296439;22;19999;-77
2022/09/20 15:16:39;;;;;;;0.40;0.40;;;16.70;99.90;;;;;;6295398;22;20003;-82
2022/09/20 15:19:07;;;;;;;0.60;0.60;;;16.60;99.90;;;;;;6293528;22;20372;-75
2022/09/20 15:21:32;;;;;;;0.65;0.40;;;16.70;99.90;;;;;;6294858;22;19999;-77
2022/09/20 15:23:58;;;;;;;0.75;0.50;;;16.60;99.90;;;;;;6293578;22;20007;-76
2022/09/20 15:26:24;;;;;;;0.50;0.40;;;16.50;99.90;;;;;;6297900;22;20071;-76
2022/09/20 15:28:49;;;;;;;0.40;0.40;;;16.40;99.90;;;;;;6297616;22;20384;-79
2022/09/20 15:31:17;;;;;;;0.40;0.40;;;16.50;99.90;;;;;;6296017;22;20485;-78
2022/09/20 15:33:43;;;;;;;0.52;0.50;;;16.50;99.90;;;;;;6296645;22;20003;-78
2022/09/20 15:36:09;;;;;;;0.30;0.30;;;16.50;99.90;;;;;;6291615;22;20213;-77
2022/09/20 15:38:34;;;;;;;0.43;0.40;;;16.10;99.90;;;;;;6295539;22;20011;-80
2022/09/20 15:41:03;;;;;;;1.75;0.30;;;15.70;99.90;;;;;;6292328;22;20310;-76
2022/09/20 15:43:29;;;;;;;0.90;0.57;;;15.30;99.90;;;;;;6296324;22;20003;-73
2022/09/20 15:46:18;;;;;;;0.30;0.30;;;15.10;99.90;;;;;;6294552;22;20102;-75
2022/09/20 15:48:44;;;;;;;0.63;0.50;;;14.80;99.90;;;;;;6296474;22;20003;-76
2022/09/20 15:51:10;;;;;;;0.45;0.40;;;14.60;99.90;;;;;;6294281;22;20033;-77